Accueil
METAR-TAF:

METAR-TAF

Aéroports :

Matagami, Québec, Canada

latitude: 49-46N, longitude: 077-49W, altitude: 281 m

Observation

Le bulletin a été fait il y a 17 minutes, à 00:00 UTC
Vent 5 kt de sud-est, variant entre est/nord-est et sud/sud-est
Température 14°C
Humidité 67%
Pression 1007 hPa
Visibilité: 14.5 km
Ciel couvert à une hauteur de 4400 ft

METAR: CYNM 030000Z AUTO 13005KT 060V150 9SM OVC044 14/08 A2975 RMK SLP085 DENSITY ALT 1100FT

Heure: 20:17 (00:17 UTC)


TAF: absent

Observations et prévisions météorologiques de plus de 4000 aéroports (messages METAR et TAF).

Les stations disponibles sont représentées par des disques jaunes et rouges sur la carte.

Passer la souris dessus pour voir le nom de la station.

Cliquer dessus pour voir les observations et prévisions météorologiques.

Pour changer de carte: cliquez sur les boutons verts avec une croix noire pour zoomer, sur le bouton vert avec un tiret pour effectuer un zoom arrière, ou sur les flèches vertes pour les cartes adjacentes.


METAR-TAF: